createdAt,value
2018-08-09T00:02:26.711Z,3.00
2018-08-09T00:04:57.097Z,3.00
2018-08-09T00:07:28.231Z,3.17
2018-08-09T00:09:58.624Z,3.00
2018-08-09T00:12:29.032Z,2.87
2018-08-09T00:14:59.464Z,2.60
2018-08-09T00:17:29.864Z,2.60
2018-08-09T00:20:01.011Z,3.23
2018-08-09T00:22:32.457Z,2.97
2018-08-09T00:25:03.627Z,3.00
2018-08-09T00:27:34.028Z,2.87
2018-08-09T00:30:04.442Z,3.17
2018-08-09T00:32:34.822Z,2.73
2018-08-09T00:35:09.233Z,2.60
2018-08-09T00:37:40.679Z,2.83
2018-08-09T00:40:11.270Z,3.30
2018-08-09T00:42:41.835Z,2.70
2018-08-09T00:45:12.257Z,3.13
2018-08-09T00:47:42.639Z,2.63
2018-08-09T00:50:13.019Z,2.97
2018-08-09T00:52:43.436Z,2.90
2018-08-09T00:55:13.770Z,3.00
2018-08-09T00:57:44.157Z,2.57
2018-08-09T01:00:14.575Z,3.07
2018-08-09T01:02:44.968Z,3.00
2018-08-09T01:05:15.376Z,2.57
2018-08-09T01:07:45.782Z,2.83
2018-08-09T01:10:16.949Z,2.80
2018-08-09T01:12:47.348Z,2.73
2018-08-09T01:15:17.776Z,2.90
2018-08-09T01:17:48.859Z,2.47
2018-08-09T01:20:19.170Z,2.97
2018-08-09T01:22:50.606Z,3.07
2018-08-09T01:25:20.984Z,2.77
2018-08-09T01:27:51.302Z,3.03
2018-08-09T01:30:22.743Z,2.90
2018-08-09T01:32:53.185Z,2.83
2018-08-09T01:35:23.517Z,2.80
2018-08-09T01:37:53.936Z,2.47
2018-08-09T01:40:28.412Z,2.97
2018-08-09T01:43:54.242Z,2.97
2018-08-09T01:46:24.624Z,2.80
2018-08-09T01:48:55.023Z,2.77
2018-08-09T01:51:25.434Z,3.10
2018-08-09T01:53:55.813Z,3.17
2018-08-09T01:56:26.211Z,3.20
2018-08-09T01:58:58.659Z,2.97
2018-08-09T02:01:29.822Z,2.83
2018-08-09T02:04:03.285Z,3.03
2018-08-09T02:06:34.478Z,3.50
2018-08-09T02:09:25.262Z,2.77
2018-08-09T02:11:55.677Z,3.60
2018-08-09T02:14:26.054Z,3.43
2018-08-09T02:19:45.494Z,3.47
2018-08-09T02:22:15.891Z,3.03
2018-08-09T02:24:46.198Z,3.00
2018-08-09T02:27:16.624Z,3.10
2018-08-09T02:29:47.010Z,2.53
2018-08-09T02:32:17.402Z,3.10
2018-08-09T02:34:48.514Z,3.30
2018-08-09T02:37:18.914Z,3.10
2018-08-09T02:39:50.321Z,2.90
2018-08-09T02:42:21.525Z,3.10
2018-08-09T02:44:51.905Z,2.93
2018-08-09T02:47:23.061Z,3.27
2018-08-09T02:49:53.498Z,2.80
2018-08-09T02:52:23.814Z,2.93
2018-08-09T02:54:54.194Z,3.00
2018-08-09T02:57:24.555Z,2.80
2018-08-09T02:59:54.958Z,2.77
2018-08-09T03:02:25.357Z,3.27
2018-08-09T03:04:59.860Z,2.73
2018-08-09T03:07:30.251Z,3.47
2018-08-09T03:10:00.629Z,2.80
2018-08-09T03:12:32.060Z,3.43
2018-08-09T03:15:02.468Z,3.17
2018-08-09T03:17:32.852Z,2.90
2018-08-09T03:20:03.202Z,2.90
2018-08-09T03:22:33.601Z,3.33
2018-08-09T03:25:03.985Z,3.20
2018-08-09T03:27:34.413Z,3.27
2018-08-09T03:30:04.802Z,3.07
2018-08-09T03:32:35.970Z,3.17
2018-08-09T03:35:07.169Z,2.90
2018-08-09T03:37:37.478Z,3.53
2018-08-09T03:40:28.272Z,2.60
2018-08-09T03:43:02.740Z,3.13
2018-08-09T03:45:33.141Z,2.80
2018-08-09T03:48:03.570Z,3.07
2018-08-09T03:50:33.946Z,3.13
2018-08-09T03:53:04.329Z,3.13
2018-08-09T03:55:34.747Z,3.30
2018-08-09T03:58:07.116Z,3.30
2018-08-09T04:00:37.502Z,3.23
2018-08-09T04:03:07.905Z,3.30
2018-08-09T04:05:39.766Z,3.47
2018-08-09T04:08:10.160Z,2.87
2018-08-09T04:10:40.586Z,3.20
2018-08-09T04:13:10.986Z,3.43
2018-08-09T04:15:41.308Z,3.30
2018-08-09T04:18:11.739Z,3.37
2018-08-09T04:20:42.126Z,3.13
2018-08-09T04:23:13.280Z,3.63
2018-08-09T04:25:44.453Z,3.70
2018-08-09T04:28:14.865Z,3.27
2018-08-09T04:30:45.239Z,3.97
2018-08-09T04:33:15.665Z,3.63
2018-08-09T04:35:46.056Z,3.87
2018-08-09T04:38:16.445Z,3.80
2018-08-09T04:40:46.853Z,3.50
2018-08-09T04:43:17.244Z,4.20
2018-08-09T04:45:47.666Z,3.73
2018-08-09T04:48:18.077Z,4.20
2018-08-09T04:50:48.464Z,3.80
2018-08-09T04:53:18.849Z,4.00
2018-08-09T04:55:49.268Z,4.10
2018-08-09T04:58:19.844Z,4.20
2018-08-09T05:00:50.222Z,4.10
2018-08-09T05:03:20.655Z,4.13
2018-08-09T05:05:51.038Z,3.80
2018-08-09T05:08:21.422Z,3.57
2018-08-09T05:10:55.944Z,4.10
2018-08-09T05:13:30.441Z,3.53
2018-08-09T05:16:01.096Z,3.30
2018-08-09T05:18:50.796Z,3.83
2018-08-09T05:21:21.193Z,4.10
2018-08-09T05:23:52.641Z,3.30
2018-08-09T05:26:23.077Z,3.70
2018-08-09T05:28:53.394Z,3.80
2018-08-09T05:31:23.790Z,4.00
2018-08-09T05:33:54.962Z,3.63
2018-08-09T05:36:25.351Z,4.33
2018-08-09T05:38:55.731Z,4.00
2018-08-09T05:41:26.142Z,4.37
2018-08-09T05:43:56.542Z,4.70
2018-08-09T05:46:27.703Z,3.83
2018-08-09T05:48:58.136Z,4.40
2018-08-09T05:51:28.568Z,3.83
2018-08-09T05:53:58.915Z,4.10
2018-08-09T05:56:29.321Z,3.87
2018-08-09T05:58:59.643Z,4.17
2018-08-09T06:01:30.021Z,4.00
2018-08-09T06:04:00.448Z,3.67
2018-08-09T06:06:30.828Z,3.77
2018-08-09T06:09:01.870Z,4.60
2018-08-09T06:11:32.283Z,3.97
2018-08-09T06:14:03.442Z,4.17
2018-08-09T06:16:33.836Z,4.43
2018-08-09T06:19:05.007Z,4.57
2018-08-09T06:21:35.410Z,4.00
2018-08-09T06:24:05.795Z,4.30
2018-08-09T06:26:55.601Z,4.57
2018-08-09T06:29:25.979Z,4.40
2018-08-09T06:34:44.138Z,4.30
2018-08-09T06:37:14.520Z,5.27
2018-08-09T06:39:44.906Z,4.83
2018-08-09T06:42:22.113Z,4.80
2018-08-09T06:44:52.492Z,4.47
2018-08-09T06:47:22.889Z,5.07
2018-08-09T06:49:53.236Z,5.07
2018-08-09T06:52:23.637Z,4.80
2018-08-09T06:54:54.029Z,4.90
2018-08-09T06:57:24.439Z,4.70
2018-08-09T06:59:54.757Z,4.90
2018-08-09T07:02:25.156Z,5.10
2018-08-09T07:04:56.283Z,5.47
2018-08-09T07:07:26.608Z,4.70
2018-08-09T07:09:56.989Z,5.10
2018-08-09T07:12:27.397Z,5.33
2018-08-09T07:14:57.808Z,5.13
2018-08-09T07:17:28.962Z,4.90
2018-08-09T07:20:00.135Z,5.43
2018-08-09T07:22:30.514Z,4.77
2018-08-09T07:25:00.906Z,4.80
2018-08-09T07:27:33.381Z,5.10
2018-08-09T07:30:03.777Z,4.67
2018-08-09T07:32:34.162Z,4.40
2018-08-09T07:35:04.566Z,4.60
2018-08-09T07:37:34.949Z,4.40
2018-08-09T07:40:05.341Z,4.80
2018-08-09T07:42:35.765Z,4.50
2018-08-09T07:45:06.146Z,4.43
2018-08-09T07:47:36.537Z,4.33
2018-08-09T07:50:06.968Z,4.50
2018-08-09T07:52:37.292Z,4.50
2018-08-09T07:55:07.665Z,4.90
2018-08-09T07:57:38.067Z,5.33
2018-08-09T08:00:08.467Z,4.90
2018-08-09T08:02:40.658Z,4.43
2018-08-09T08:05:11.066Z,5.10
2018-08-09T08:07:41.449Z,5.13
2018-08-09T08:10:13.879Z,4.67
2018-08-09T08:12:44.312Z,5.03
2018-08-09T08:15:15.350Z,4.87
2018-08-09T08:17:45.672Z,4.60
2018-08-09T08:20:16.187Z,4.13
2018-08-09T08:22:46.580Z,4.70
2018-08-09T08:25:16.955Z,3.97
2018-08-09T08:27:48.410Z,4.17
2018-08-09T08:30:18.801Z,4.30
2018-08-09T08:32:49.133Z,4.37
2018-08-09T08:35:19.486Z,3.60
2018-08-09T08:37:49.886Z,3.73
2018-08-09T08:40:20.277Z,3.13
2018-08-09T08:42:50.695Z,3.33
2018-08-09T08:45:27.223Z,3.40
2018-08-09T08:47:57.573Z,3.00
2018-08-09T08:50:28.075Z,3.20
2018-08-09T08:52:59.236Z,2.80
2018-08-09T08:55:29.648Z,2.97
2018-08-09T08:58:00.012Z,2.70
2018-08-09T09:00:30.366Z,3.07
2018-08-09T09:03:00.775Z,3.23
2018-08-09T09:05:37.317Z,3.00
2018-08-09T09:08:07.719Z,3.30
2018-08-09T09:10:38.879Z,3.10
2018-08-09T09:13:09.260Z,2.83
2018-08-09T09:15:39.665Z,2.97
2018-08-09T09:18:15.180Z,3.30
2018-08-09T09:20:46.552Z,3.07
2018-08-09T09:23:16.954Z,3.40
2018-08-09T09:25:48.114Z,3.33
2018-08-09T09:28:18.533Z,3.33
2018-08-09T09:30:48.923Z,3.03
2018-08-09T09:33:19.298Z,3.30
2018-08-09T09:35:49.717Z,3.27
2018-08-09T09:38:20.111Z,2.93
2018-08-09T09:40:50.507Z,3.70
2018-08-09T09:43:20.904Z,3.30
2018-08-09T09:45:51.286Z,3.60
2018-08-09T09:48:21.668Z,3.33
2018-08-09T09:50:53.103Z,3.30
2018-08-09T09:53:23.486Z,3.30
2018-08-09T09:55:53.874Z,3.70
2018-08-09T09:58:24.162Z,3.60
2018-08-09T10:00:56.317Z,3.70
2018-08-09T10:03:26.709Z,3.43
2018-08-09T10:06:17.503Z,3.27
2018-08-09T10:08:55.226Z,3.33
2018-08-09T10:11:25.636Z,2.90
2018-08-09T10:13:56.028Z,3.20
2018-08-09T10:16:26.411Z,3.07
2018-08-09T10:18:56.808Z,2.63
2018-08-09T10:21:31.292Z,2.37
2018-08-09T10:24:02.477Z,2.17
2018-08-09T10:26:37.147Z,2.07
2018-08-09T10:29:07.548Z,2.17
2018-08-09T10:31:38.001Z,2.40
2018-08-09T10:34:08.393Z,2.40
2018-08-09T10:36:44.958Z,2.30
2018-08-09T10:39:34.711Z,1.93
2018-08-09T10:42:05.125Z,2.00
2018-08-09T10:44:36.278Z,2.20
2018-08-09T10:47:06.677Z,2.40
2018-08-09T10:49:37.093Z,1.90
2018-08-09T10:52:07.476Z,1.73
2018-08-09T10:57:25.833Z,1.97
2018-08-09T10:59:56.205Z,2.40
2018-08-09T11:02:26.593Z,2.27
2018-08-09T11:04:57.014Z,2.60
2018-08-09T11:07:27.395Z,2.57
2018-08-09T11:09:57.788Z,2.97
2018-08-09T11:12:28.252Z,2.73
2018-08-09T11:14:58.606Z,2.97
2018-08-09T11:17:28.961Z,2.93
2018-08-09T11:19:59.371Z,3.30
2018-08-09T11:22:29.738Z,3.30
2018-08-09T11:25:00.124Z,3.60
2018-08-09T11:27:30.553Z,3.47
2018-08-09T11:30:00.928Z,3.60
2018-08-09T11:32:31.937Z,3.40
2018-08-09T11:35:02.362Z,3.90
2018-08-09T11:37:34.796Z,3.70
2018-08-09T11:40:05.184Z,3.50
2018-08-09T11:42:35.601Z,3.63
2018-08-09T11:45:25.078Z,3.80
2018-08-09T11:48:02.737Z,4.27
2018-08-09T11:50:33.137Z,4.97
2018-08-09T11:53:03.534Z,4.53
2018-08-09T11:55:33.947Z,4.23
2018-08-09T11:58:04.331Z,4.40
2018-08-09T12:00:35.479Z,4.03
2018-08-09T12:03:06.654Z,4.53
2018-08-09T12:05:37.045Z,3.93
2018-08-09T12:08:07.428Z,4.37
2018-08-09T12:10:38.864Z,4.30
2018-08-09T12:13:15.399Z,4.40
2018-08-09T12:15:46.611Z,4.50
2018-08-09T12:18:16.991Z,4.77
2018-08-09T12:20:47.423Z,4.27
2018-08-09T12:23:17.792Z,3.97
2018-08-09T12:25:50.917Z,4.50
2018-08-09T12:28:22.062Z,4.10
2018-08-09T12:30:52.473Z,4.50
2018-08-09T12:33:23.873Z,4.57
2018-08-09T12:35:59.399Z,3.90
2018-08-09T12:38:29.783Z,4.60
2018-08-09T12:41:00.152Z,4.20
2018-08-09T12:43:30.569Z,4.60
2018-08-09T12:46:00.965Z,4.50
2018-08-09T12:48:31.279Z,4.10
2018-08-09T12:51:01.689Z,4.53
2018-08-09T12:53:32.070Z,4.77
2018-08-09T12:56:03.488Z,4.30
2018-08-09T12:58:33.921Z,4.20
2018-08-09T13:01:04.243Z,4.40
2018-08-09T13:03:35.394Z,4.73
2018-08-09T13:06:05.830Z,4.33
2018-08-09T13:08:36.198Z,4.27
2018-08-09T13:11:06.539Z,4.17
2018-08-09T13:13:36.938Z,4.23
2018-08-09T13:16:07.342Z,4.60
2018-08-09T13:18:38.487Z,4.37
2018-08-09T13:21:09.662Z,4.80
2018-08-09T13:23:40.053Z,4.20
2018-08-09T13:26:11.193Z,4.10
2018-08-09T13:28:42.390Z,4.73
2018-08-09T13:31:18.907Z,4.57
2018-08-09T13:33:50.020Z,4.17
2018-08-09T13:36:20.404Z,4.70
2018-08-09T13:38:50.788Z,4.40
2018-08-09T13:41:21.216Z,3.90
2018-08-09T13:43:51.531Z,3.60
2018-08-09T13:46:21.906Z,3.80
2018-08-09T13:48:52.347Z,3.87
2018-08-09T13:51:22.776Z,3.50
2018-08-09T13:53:53.127Z,3.80
2018-08-09T13:56:29.671Z,3.50
2018-08-09T13:59:00.063Z,3.20
2018-08-09T14:01:32.431Z,3.80
2018-08-09T14:04:02.828Z,3.33
2018-08-09T14:06:33.918Z,3.30
2018-08-09T14:09:05.078Z,3.87
2018-08-09T14:11:35.478Z,3.37
2018-08-09T14:14:06.626Z,3.07
2018-08-09T14:16:37.771Z,3.00
2018-08-09T14:19:08.958Z,3.30
2018-08-09T14:21:39.342Z,3.10
2018-08-09T14:24:10.502Z,2.90
2018-08-09T14:26:40.929Z,2.93
2018-08-09T14:29:11.310Z,3.00
2018-08-09T14:31:41.695Z,2.93
2018-08-09T14:34:12.049Z,2.80
2018-08-09T14:36:43.464Z,2.40
2018-08-09T14:39:14.027Z,2.30
2018-08-09T14:41:44.371Z,2.47
2018-08-09T14:44:14.767Z,2.20
2018-08-09T14:46:46.162Z,2.30
2018-08-09T14:52:04.240Z,1.87
2018-08-09T14:54:35.407Z,1.83
2018-08-09T14:57:05.786Z,1.47
2018-08-09T14:59:36.173Z,1.50
2018-08-09T15:02:06.589Z,1.53
2018-08-09T15:04:36.908Z,1.20
2018-08-09T15:07:07.300Z,1.03
2018-08-09T15:09:37.712Z,1.13
2018-08-09T15:12:08.034Z,1.03
2018-08-09T15:14:38.352Z,1.47
2018-08-09T15:17:08.748Z,1.10
2018-08-09T15:19:41.182Z,1.60
2018-08-09T15:22:11.585Z,1.43
2018-08-09T15:24:41.989Z,1.50
2018-08-09T15:27:12.365Z,1.10
2018-08-09T15:29:42.945Z,1.20
2018-08-09T15:32:13.556Z,1.07
2018-08-09T15:34:43.944Z,1.00
2018-08-09T15:37:14.322Z,1.30
2018-08-09T15:39:49.000Z,1.30
2018-08-09T15:42:18.942Z,1.33
2018-08-09T15:44:49.329Z,1.33
2018-08-09T15:47:19.723Z,1.60
2018-08-09T15:49:52.684Z,1.60
2018-08-09T15:52:23.061Z,1.63
2018-08-09T15:54:53.487Z,1.50
2018-08-09T15:57:23.813Z,1.30
2018-08-09T15:59:54.205Z,1.53
2018-08-09T16:02:25.363Z,2.03
2018-08-09T16:04:58.730Z,1.83
2018-08-09T16:07:29.127Z,1.90
2018-08-09T16:10:02.592Z,1.23
2018-08-09T16:12:32.938Z,1.20
2018-08-09T16:15:09.158Z,1.30
2018-08-09T16:17:42.041Z,1.20
2018-08-09T16:20:12.435Z,1.00
2018-08-09T16:22:42.845Z,1.37
2018-08-09T16:25:15.690Z,0.93
2018-08-09T16:27:51.222Z,0.80
2018-08-09T16:30:21.624Z,1.07
2018-08-09T16:32:55.511Z,0.90
2018-08-09T16:35:25.854Z,1.10
2018-08-09T16:37:56.257Z,1.57
2018-08-09T16:40:26.655Z,1.10
2018-08-09T16:42:58.084Z,0.90
2018-08-09T16:45:40.674Z,0.90
2018-08-09T16:48:11.848Z,1.47
2018-08-09T16:50:47.809Z,0.80
2018-08-09T16:53:18.232Z,0.80
2018-08-09T16:55:48.622Z,1.10
2018-08-09T16:58:19.712Z,1.00
2018-08-09T17:00:54.158Z,0.90
2018-08-09T17:03:24.545Z,1.13
2018-08-09T17:05:54.937Z,1.03
2018-08-09T17:08:27.963Z,1.20
2018-08-09T17:11:01.112Z,0.90
2018-08-09T17:16:25.013Z,1.20
2018-08-09T17:18:58.328Z,1.00
2018-08-09T17:21:29.510Z,1.20
2018-08-09T17:23:59.897Z,0.83
2018-08-09T17:26:35.950Z,1.10
2018-08-09T17:29:06.339Z,1.20
2018-08-09T17:31:37.768Z,1.00
2018-08-09T17:34:12.276Z,1.07
2018-08-09T17:36:42.670Z,1.07
2018-08-09T17:39:16.855Z,1.20
2018-08-09T17:41:57.861Z,1.67
2018-08-09T17:44:28.256Z,1.10
2018-08-09T17:46:58.644Z,1.20
2018-08-09T17:49:31.512Z,1.20
2018-08-09T17:52:01.895Z,1.13
2018-08-09T17:54:32.292Z,1.00
2018-08-09T17:57:11.393Z,1.23
2018-08-09T17:59:45.073Z,1.10
2018-08-09T18:02:21.215Z,0.90
2018-08-09T18:04:54.308Z,1.50
2018-08-09T18:07:27.207Z,1.27
2018-08-09T18:10:03.351Z,1.50
2018-08-09T18:12:33.755Z,1.20
2018-08-09T18:15:09.248Z,1.53
2018-08-09T18:17:40.695Z,1.70
2018-08-09T18:20:11.062Z,1.13
2018-08-09T18:22:41.457Z,1.10
2018-08-09T18:25:11.864Z,1.57
2018-08-09T18:27:42.241Z,1.33
2018-08-09T18:30:15.283Z,1.13
2018-08-09T18:32:45.911Z,1.50
2018-08-09T18:35:18.300Z,1.40
2018-08-09T18:37:50.762Z,1.57
2018-08-09T18:40:24.017Z,1.67
2018-08-09T18:42:56.527Z,1.27
2018-08-09T18:45:30.995Z,1.20
2018-08-09T18:48:04.425Z,1.33
2018-08-09T18:50:40.956Z,1.30
2018-08-09T18:53:11.387Z,1.40
2018-08-09T18:55:44.525Z,1.20
2018-08-09T18:58:14.950Z,1.30
2018-08-09T19:00:45.279Z,1.57
2018-08-09T19:03:18.230Z,1.30
2018-08-09T19:05:51.318Z,1.20
2018-08-09T19:08:21.713Z,0.93
2018-08-09T19:10:52.861Z,1.37
2018-08-09T19:13:24.043Z,1.17
2018-08-09T19:15:54.447Z,1.47
2018-08-09T19:18:27.562Z,1.50
2018-08-09T19:21:00.035Z,1.53
2018-08-09T19:23:31.158Z,1.20
2018-08-09T19:26:01.749Z,1.20
2018-08-09T19:28:37.575Z,1.30
2018-08-09T19:31:12.912Z,1.23
2018-08-09T19:33:45.381Z,1.47
2018-08-09T19:39:03.407Z,1.07
2018-08-09T19:41:34.470Z,1.20
2018-08-09T19:44:07.493Z,1.20
2018-08-09T19:46:38.945Z,1.20
2018-08-09T19:49:13.425Z,1.13
2018-08-09T19:51:44.544Z,1.10
2018-08-09T19:54:17.730Z,1.37
2018-08-09T19:56:48.816Z,1.17
2018-08-09T19:59:19.242Z,1.10
2018-08-09T20:01:49.646Z,1.30
2018-08-09T20:04:20.804Z,1.37
2018-08-09T20:06:51.313Z,1.10
2018-08-09T20:09:21.560Z,1.63
2018-08-09T20:11:54.718Z,1.20
2018-08-09T20:14:34.315Z,0.93
2018-08-09T20:17:08.852Z,1.00
2018-08-09T20:19:39.226Z,1.73
2018-08-09T20:22:10.367Z,1.50
2018-08-09T20:24:40.775Z,1.17
2018-08-09T20:27:11.165Z,1.33
2018-08-09T20:29:48.746Z,1.43
2018-08-09T20:32:19.125Z,1.40
2018-08-09T20:34:52.186Z,1.17
2018-08-09T20:37:25.028Z,1.63
2018-08-09T20:39:56.175Z,1.33
2018-08-09T20:42:26.580Z,1.20
2018-08-09T20:44:56.990Z,1.07
2018-08-09T20:47:27.379Z,1.20
2018-08-09T20:49:57.763Z,1.33
2018-08-09T20:52:28.958Z,1.37
2018-08-09T20:54:59.357Z,1.20
2018-08-09T20:57:29.744Z,1.23
2018-08-09T21:00:00.160Z,1.03
2018-08-09T21:02:30.561Z,1.23
2018-08-09T21:05:01.653Z,1.33
2018-08-09T21:07:32.076Z,1.40
2018-08-09T21:10:05.035Z,1.50
2018-08-09T21:12:37.505Z,1.23
2018-08-09T21:15:07.884Z,1.30
2018-08-09T21:17:42.046Z,1.37
2018-08-09T21:20:14.465Z,1.60
2018-08-09T21:22:44.858Z,1.23
2018-08-09T21:25:15.294Z,1.27
2018-08-09T21:27:45.690Z,1.50
2018-08-09T21:30:18.133Z,1.50
2018-08-09T21:32:52.196Z,1.33
2018-08-09T21:35:23.258Z,1.30
2018-08-09T21:37:53.661Z,1.60
2018-08-09T21:40:46.076Z,1.40
2018-08-09T21:43:16.474Z,1.50
2018-08-09T21:45:46.868Z,1.53
2018-08-09T21:48:17.214Z,1.90
2018-08-09T21:50:47.607Z,1.40
2018-08-09T21:53:20.047Z,1.30
2018-08-09T21:55:50.506Z,1.57
2018-08-09T21:58:20.876Z,1.20
2018-08-09T22:00:52.049Z,1.33
2018-08-09T22:03:22.460Z,1.67
2018-08-09T22:06:11.760Z,1.67
2018-08-09T22:08:48.286Z,1.53
2018-08-09T22:11:36.836Z,1.70
2018-08-09T22:17:07.429Z,1.20
2018-08-09T22:19:49.823Z,1.40
2018-08-09T22:22:20.208Z,1.60
2018-08-09T22:24:50.589Z,1.27
2018-08-09T22:27:21.025Z,1.60
2018-08-09T22:29:53.479Z,1.57
2018-08-09T22:32:23.886Z,1.50
2018-08-09T22:34:55.101Z,1.30
2018-08-09T22:37:25.499Z,1.20
2018-08-09T22:39:56.928Z,1.77
2018-08-09T22:42:27.343Z,1.37
2018-08-09T22:44:58.489Z,1.40
2018-08-09T22:47:28.889Z,1.70
2018-08-09T22:49:59.298Z,1.67
2018-08-09T22:52:29.693Z,1.37
2018-08-09T22:55:00.087Z,1.40
2018-08-09T22:57:31.283Z,1.43
2018-08-09T23:00:07.823Z,1.63
2018-08-09T23:02:38.238Z,1.83
2018-08-09T23:05:10.084Z,1.40
2018-08-09T23:07:40.469Z,1.53
2018-08-09T23:10:10.894Z,1.93
2018-08-09T23:12:41.300Z,1.80
2018-08-09T23:15:11.689Z,1.53
2018-08-09T23:17:42.111Z,1.50
2018-08-09T23:20:12.509Z,1.30
2018-08-09T23:22:46.978Z,1.80
2018-08-09T23:25:18.174Z,2.13
2018-08-09T23:27:52.649Z,1.50
2018-08-09T23:30:23.770Z,1.83
2018-08-09T23:32:54.176Z,2.10
2018-08-09T23:35:24.510Z,2.10
2018-08-09T23:37:54.929Z,2.10
2018-08-09T23:40:25.250Z,2.20
2018-08-09T23:43:14.014Z,1.67
2018-08-09T23:45:44.412Z,1.80
2018-08-09T23:48:14.794Z,1.60
2018-08-09T23:50:45.216Z,2.00
2018-08-09T23:53:15.603Z,1.50
2018-08-09T23:55:48.812Z,1.60
2018-08-09T23:58:19.227Z,2.27
